KJAC/JAC METAR and TAF weather

Enter ICAO airport designator
Station Type Date Time Source
KJAC METAR 2019/08/24 06:56 UTC NOAA

KJAC 240656Z AUTO 01004KT 10SM CLR 07/02 A3015 RMK AO2 SLP166 T00670017


Station Type Date Time Source
KJAC Decoded METAR 2019/08/24 06:56 UTC NOAA

Station name not available
Aug 24, 2019 - 02:56 AM EDT / 2019.08.24 0656 UTC
Wind: from the N (010 degrees) at 5 MPH (4 KT):0
Visibility: 10 mile(s):0
Sky conditions: clear
Temperature: 44.1 F (6.7 C)
Dew Point: 35.1 F (1.7 C)
Relative Humidity: 70%
Pressure (altimeter): 30.15 in. Hg (1020 hPa)
ob: KJAC 240656Z AUTO 01004KT 10SM CLR 07/02 A3015 RMK AO2 SLP166 T00670017
cycle: 7

Station Type Date Time Source
KJAC TAF 2019/08/24 06:33 UTC NOAA

TAF KJAC 240530Z 2406/2506 VRB05KT P6SM SKC
FM241600 19008KT P6SM SKC
FM242100 24012G20KT P6SM FEW120 SCT180
FM250200 23010KT P6SM FEW200
AMD LTD TO CLD VIS AND WIND

Example: see airport list